Alamosa, CO

7:33 AM MDT on July 31, 2014 (GMT -0600)
San Luis Valley Regional / Bergman Field (KALS) Elev 7543 ft | 37.44 °N, 105.86 °W | Change Station

Current weather conditions updated 27 minutes ago

Overcast
Overcast
56 °F
Feels Like 56 °F
N
5
Wind Variable Wind from East

Today is forecast to be Cooler than yesterday. Scattered thunderstorms possible.

Today
High -- | Low -- °F
--% Chance of Precip.
Yesterday
High -- | Low -- °F
Precip. -- in
6:06 AM 8:12 PM
Waxing Crescent, 18% visible
Pressure 30.37 in
Visibility 10.0 miles
Clouds Overcast 2900 ft
Dew Point 53 °F
Humidity 90%
Rainfall 0.00 in
Snow Depth Not available.
UV 0 out of 12
Pollen 2.80 out of 12
Air Quality Not available.
Flu Activity Not available.
SPECI KALS 311306Z AUTO 08004KT 10SM OVC029 13/12 A3037 RMK AO2 T01330117

More Conditions Fewer Conditions

Pressure 30.37 in
Visibility 10.0 miles
Clouds Overcast 2900 ft
Dew Point 53 °F
Humidity 90%
Rainfall 0.00 in
Snow Depth Not available.
UV 0 out of 12
Pollen 2.80 out of 12
Air Quality Not available.
Flu Activity Not available.
SPECI KALS 311306Z AUTO 08004KT 10SM OVC029 13/12 A3037 RMK AO2 T01330117

More Conditions Fewer Conditions

10-Day Weather Forecast

Almanac

Astronomy

Jul. 31, 2014 Rise Set
Actual Time 6:06 AM MDT 8:12 PM MDT
Civil Twilight 5:37 AM MDT 8:41 PM MDT
Nautical Twilight 5:02 AM MDT 9:16 PM MDT
Astronomical Twilight 4:24 AM MDT 9:54 PM MDT
Moon 10:30 AM MDT 10:33 PM MDT
Length of Visible Light 15h 03m
Length of Day
14h 05m
Tomorrow will be 1m 47s shorter.
Waxing Crescent, 18% of the Moon is Illuminated
Today
Waxing Crescent
Aug 3
First Quarter
Aug 10
Full
Aug 17
Last Quarter
Aug 25
New

Today's Extremes

State Highs State Lows

Community

WunderPhotos

Upload Photos

1,739,324 photos uploaded!

WunderBlogs® & News

Nearby

Snow Depth

Station Depth Elevation
Ute Creek 0 in 10650 ft
Trinchera 2 in 10860 ft
Medano Pass 0 in 9620 ft
Apishapa 1 in 10000 ft
Wolf Creek Summit 0 in 11000 ft

Earthquake Activity

City Distance Mag. Time & Date
No recent earthquake activity has been reported nearby.
Minimum magnitude displayed is 2.5.

Coastal Water Temperatures

Place Temperature
No Stations Reporting

Nearby Weather Stations

Station Location Temp. Dew Point Humidity Wind Precip. Elev Updated Type
Alamosa, Alamosa, CO 56.1 °F 52 °F 86% SSE  at  0.0 mph - / hr 7569 ft 7:33 AM MDT Rapid Fire
NE of Alamosa, Alamosa, CO 57.0 °F 55 °F 92% South  at  3.0 mph 0.00 in / hr 7556 ft 7:32 AM MDT Normal
Monte Vista, CO 55.0 °F 53 °F 93% SE  at  1.6 mph 0.00 in / hr 7674 ft 7:33 AM MDT Rapid Fire
WestMonteVista, Monte Vista, CO 58.6 °F 44 °F 59% South  at  3.1 mph 0.00 in / hr 7684 ft 7:29 AM MDT Normal
Hooper, Hooper, CO 54.0 °F 52 °F 95% South  at  0.0 mph 0.00 in / hr 7559 ft 7:33 AM MDT Rapid Fire
North West of, MONTE VISTA, CO 55.2 °F 51 °F 87% South  at  1.0 mph 0.00 in / hr 7720 ft 7:33 AM MDT Rapid Fire

Show More Stations Show Fewer Stations